sensor_id;sensor_type;location;lat;lon;timestamp;pressure;altitude;pressure_sealevel;temperature;humidity
45523;BME280;31254;51.680;5.394;2023-04-24T00:00:34;99961.16;;;10.66;86.56
45523;BME280;31254;51.680;5.394;2023-04-24T00:03:00;99991.66;;;10.77;86.85
45523;BME280;31254;51.680;5.394;2023-04-24T00:05:29;99977.88;;;10.71;87.22
45523;BME280;31254;51.680;5.394;2023-04-24T00:07:56;99980.25;;;10.74;86.95
45523;BME280;31254;51.680;5.394;2023-04-24T00:10:23;99973.09;;;10.73;86.97
45523;BME280;31254;51.680;5.394;2023-04-24T00:12:52;99978.03;;;10.77;87.00
45523;BME280;31254;51.680;5.394;2023-04-24T00:15:19;99964.41;;;10.69;87.06
45523;BME280;31254;51.680;5.394;2023-04-24T00:17:48;99962.19;;;10.65;87.39
45523;BME280;31254;51.680;5.394;2023-04-24T00:20:15;99982.44;;;10.78;87.56
45523;BME280;31254;51.680;5.394;2023-04-24T00:22:42;99961.84;;;10.68;87.37
45523;BME280;31254;51.680;5.394;2023-04-24T00:25:09;99973.44;;;10.70;87.62
45523;BME280;31254;51.680;5.394;2023-04-24T00:27:35;99976.66;;;10.73;87.61
45523;BME280;31254;51.680;5.394;2023-04-24T00:30:04;99979.72;;;10.70;87.73
45523;BME280;31254;51.680;5.394;2023-04-24T00:32:31;99965.41;;;10.68;87.60
45523;BME280;31254;51.680;5.394;2023-04-24T00:34:57;99985.16;;;10.78;87.50
45523;BME280;31254;51.680;5.394;2023-04-24T00:37:24;99978.88;;;10.70;87.71
45523;BME280;31254;51.680;5.394;2023-04-24T00:39:53;99980.25;;;10.74;87.98
45523;BME280;31254;51.680;5.394;2023-04-24T00:42:20;99977.88;;;10.71;87.83
45523;BME280;31254;51.680;5.394;2023-04-24T00:44:50;99985.16;;;10.78;87.76
45523;BME280;31254;51.680;5.394;2023-04-24T00:47:19;99985.72;;;10.74;87.76
45523;BME280;31254;51.680;5.394;2023-04-24T00:49:46;99987.41;;;10.75;87.65
45523;BME280;31254;51.680;5.394;2023-04-24T00:52:16;99991.84;;;10.76;87.87
45523;BME280;31254;51.680;5.394;2023-04-24T00:54:44;99982.97;;;10.66;88.29
45523;BME280;31254;51.680;5.394;2023-04-24T00:57:13;99996.97;;;10.71;87.95
45523;BME280;31254;51.680;5.394;2023-04-24T00:59:42;99994.56;;;10.76;88.25
45523;BME280;31254;51.680;5.394;2023-04-24T01:02:10;99952.97;;;10.41;88.10
45523;BME280;31254;51.680;5.394;2023-04-24T01:04:38;99995.75;;;10.73;88.36
45523;BME280;31254;51.680;5.394;2023-04-24T01:07:05;100001.22;;;10.73;88.34
45523;BME280;31254;51.680;5.394;2023-04-24T01:09:40;99970.22;;;10.58;88.00
45523;BME280;31254;51.680;5.394;2023-04-24T01:12:12;99994.06;;;10.72;88.48
45523;BME280;31254;51.680;5.394;2023-04-24T01:14:39;99987.25;;;10.68;88.15
45523;BME280;31254;51.680;5.394;2023-04-24T01:17:06;99976.00;;;10.63;88.15
45523;BME280;31254;51.680;5.394;2023-04-24T01:19:33;99988.06;;;10.69;88.34
45523;BME280;31254;51.680;5.394;2023-04-24T01:22:11;99977.00;;;10.62;88.55
45523;BME280;31254;51.680;5.394;2023-04-24T01:24:39;99989.81;;;10.61;88.69
45523;BME280;31254;51.680;5.394;2023-04-24T01:27:07;100002.75;;;10.68;88.76
45523;BME280;31254;51.680;5.394;2023-04-24T01:29:34;100002.75;;;10.68;88.77
45523;BME280;31254;51.680;5.394;2023-04-24T01:32:05;100002.06;;;10.66;89.03
45523;BME280;31254;51.680;5.394;2023-04-24T01:34:32;99967.28;;;10.43;89.02
45523;BME280;31254;51.680;5.394;2023-04-24T01:36:59;99998.31;;;10.58;89.25
45523;BME280;31254;51.680;5.394;2023-04-24T01:39:29;99980.41;;;10.56;89.49
45523;BME280;31254;51.680;5.394;2023-04-24T01:41:56;99997.16;;;10.61;89.40
45523;BME280;31254;51.680;5.394;2023-04-24T01:44:23;99986.03;;;10.54;89.56
45523;BME280;31254;51.680;5.394;2023-04-24T01:46:50;99985.38;;;10.52;89.66
45523;BME280;31254;51.680;5.394;2023-04-24T01:49:18;99986.03;;;10.54;89.61
45523;BME280;31254;51.680;5.394;2023-04-24T01:51:45;99995.75;;;10.57;89.76
45523;BME280;31254;51.680;5.394;2023-04-24T01:54:12;99994.06;;;10.56;89.47
45523;BME280;31254;51.680;5.394;2023-04-24T01:56:41;99990.97;;;10.59;89.80
45523;BME280;31254;51.680;5.394;2023-04-24T01:59:15;99981.97;;;10.58;90.09
45523;BME280;31254;51.680;5.394;2023-04-24T02:01:43;100002.06;;;10.57;89.96
45523;BME280;31254;51.680;5.394;2023-04-24T02:04:13;99996.94;;;10.54;90.24
45523;BME280;31254;51.680;5.394;2023-04-24T02:06:41;99981.47;;;10.47;89.70
45523;BME280;31254;51.680;5.394;2023-04-24T02:09:11;99995.25;;;10.53;89.85
45523;BME280;31254;51.680;5.394;2023-04-24T02:11:37;99996.28;;;10.52;89.83
45523;BME280;31254;51.680;5.394;2023-04-24T02:14:04;99969.34;;;10.33;89.88
45523;BME280;31254;51.680;5.394;2023-04-24T02:16:31;100002.94;;;10.50;89.83
45523;BME280;31254;51.680;5.394;2023-04-24T02:19:02;99999.66;;;10.46;89.87
45523;BME280;31254;51.680;5.394;2023-04-24T02:21:32;100002.06;;;10.41;89.95
45523;BME280;31254;51.680;5.394;2023-04-24T02:23:59;100007.50;;;10.41;89.79
45523;BME280;31254;51.680;5.394;2023-04-24T02:26:28;99996.94;;;10.38;90.12
45523;BME280;31254;51.680;5.394;2023-04-24T02:28:58;99882.72;;;9.61;90.08
45523;BME280;31254;51.680;5.394;2023-04-24T02:31:26;99996.94;;;10.38;90.50
45523;BME280;31254;51.680;5.394;2023-04-24T02:33:53;99999.84;;;10.36;90.35
45523;BME280;31254;51.680;5.394;2023-04-24T02:36:26;100003.59;;;10.35;90.63
45523;BME280;31254;51.680;5.394;2023-04-24T02:39:07;99942.53;;;10.03;90.16
45523;BME280;31254;51.680;5.394;2023-04-24T02:41:43;99891.41;;;9.64;90.43
45523;BME280;31254;51.680;5.394;2023-04-24T02:44:13;99996.91;;;10.30;90.43
45523;BME280;31254;51.680;5.394;2023-04-24T02:46:40;99997.06;;;10.28;90.32
45523;BME280;31254;51.680;5.394;2023-04-24T02:49:08;99995.56;;;10.25;90.45
45523;BME280;31254;51.680;5.394;2023-04-24T02:51:38;99980.88;;;10.10;90.22
45523;BME280;31254;51.680;5.394;2023-04-24T02:54:08;99995.22;;;10.20;90.79
45523;BME280;31254;51.680;5.394;2023-04-24T02:56:38;99978.16;;;10.10;90.87
45523;BME280;31254;51.680;5.394;2023-04-24T02:59:05;100001.00;;;10.17;90.97
45523;BME280;31254;51.680;5.394;2023-04-24T03:01:35;100000.13;;;10.17;90.63
45523;BME280;31254;51.680;5.394;2023-04-24T03:04:02;99969.28;;;10.00;90.91
45523;BME280;31254;51.680;5.394;2023-04-24T03:06:39;99969.97;;;10.02;91.02
45523;BME280;31254;51.680;5.394;2023-04-24T03:09:06;99991.28;;;10.15;90.70
45523;BME280;31254;51.680;5.394;2023-04-24T03:11:33;99982.25;;;10.06;91.02
45523;BME280;31254;51.680;5.394;2023-04-24T03:14:03;99982.91;;;10.08;90.77
45523;BME280;31254;51.680;5.394;2023-04-24T03:16:30;99981.53;;;10.04;90.64
45523;BME280;31254;51.680;5.394;2023-04-24T03:18:57;99983.75;;;10.09;90.72
45523;BME280;31254;51.680;5.394;2023-04-24T03:21:29;99991.09;;;10.08;90.93
45523;BME280;31254;51.680;5.394;2023-04-24T03:23:57;99992.28;;;10.05;90.61
45523;BME280;31254;51.680;5.394;2023-04-24T03:26:26;99924.94;;;9.65;90.91
45523;BME280;31254;51.680;5.394;2023-04-24T03:28:54;99979.66;;;9.96;91.06
45523;BME280;31254;51.680;5.394;2023-04-24T03:31:23;99993.97;;;9.98;90.96
45523;BME280;31254;51.680;5.394;2023-04-24T03:33:51;99984.41;;;9.94;91.27
45523;BME280;31254;51.680;5.394;2023-04-24T03:36:21;99979.47;;;9.89;90.95
45523;BME280;31254;51.680;5.394;2023-04-24T03:38:49;99816.69;;;8.91;90.75
45523;BME280;31254;51.680;5.394;2023-04-24T03:41:18;99846.84;;;9.06;91.00
45523;BME280;31254;51.680;5.394;2023-04-24T03:43:46;99986.13;;;9.95;91.22
45523;BME280;31254;51.680;5.394;2023-04-24T03:46:13;99912.81;;;9.51;91.01
45523;BME280;31254;51.680;5.394;2023-04-24T03:48:40;99961.09;;;9.83;90.92
45523;BME280;31254;51.680;5.394;2023-04-24T03:51:10;99937.22;;;9.69;91.28
45523;BME280;31254;51.680;5.394;2023-04-24T03:53:37;99862.88;;;9.26;90.93
45523;BME280;31254;51.680;5.394;2023-04-24T03:56:04;99980.00;;;9.93;91.18
45523;BME280;31254;51.680;5.394;2023-04-24T03:58:32;99921.50;;;9.55;91.38
45523;BME280;31254;51.680;5.394;2023-04-24T04:00:59;99965.31;;;9.86;91.20
45523;BME280;31254;51.680;5.394;2023-04-24T04:03:29;99933.78;;;9.67;91.22
45523;BME280;31254;51.680;5.394;2023-04-24T04:05:57;99961.59;;;9.87;90.88
45523;BME280;31254;51.680;5.394;2023-04-24T04:08:24;99967.56;;;9.91;91.19
45523;BME280;31254;51.680;5.394;2023-04-24T04:10:51;99923.94;;;9.66;91.37
45523;BME280;31254;51.680;5.394;2023-04-24T04:13:18;99972.00;;;9.92;91.29
45523;BME280;31254;51.680;5.394;2023-04-24T04:15:45;99969.59;;;9.88;91.16
45523;BME280;31254;51.680;5.394;2023-04-24T04:18:14;99984.41;;;9.94;91.18
45523;BME280;31254;51.680;5.394;2023-04-24T04:20:46;99989.00;;;9.94;91.17
45523;BME280;31254;51.680;5.394;2023-04-24T04:23:14;99958.53;;;9.82;91.33
45523;BME280;31254;51.680;5.394;2023-04-24T04:25:45;99947.59;;;9.74;91.25
45523;BME280;31254;51.680;5.394;2023-04-24T04:28:13;99975.72;;;9.82;91.34
45523;BME280;31254;51.680;5.394;2023-04-24T04:30:42;99991.06;;;9.92;91.47
45523;BME280;31254;51.680;5.394;2023-04-24T04:33:09;99991.22;;;9.90;91.53
45523;BME280;31254;51.680;5.394;2023-04-24T04:35:37;100000.25;;;9.91;91.47
45523;BME280;31254;51.680;5.394;2023-04-24T04:38:07;99993.59;;;9.85;91.89
45523;BME280;31254;51.680;5.394;2023-04-24T04:40:35;99993.22;;;9.80;91.42
45523;BME280;31254;51.680;5.394;2023-04-24T04:43:06;100007.06;;;9.86;91.60
45523;BME280;31254;51.680;5.394;2023-04-24T04:45:33;100013.50;;;9.85;91.73
45523;BME280;31254;51.680;5.394;2023-04-24T04:48:03;99963.72;;;9.59;91.61
45523;BME280;31254;51.680;5.394;2023-04-24T04:50:30;100005.31;;;9.77;91.52
45523;BME280;31254;51.680;5.394;2023-04-24T04:52:58;100016.41;;;9.84;91.73
45523;BME280;31254;51.680;5.394;2023-04-24T04:55:27;99996.97;;;9.70;91.65
45523;BME280;31254;51.680;5.394;2023-04-24T04:57:53;100003.94;;;9.73;91.47
45523;BME280;31254;51.680;5.394;2023-04-24T05:00:24;100025.91;;;9.80;91.76
45523;BME280;31254;51.680;5.394;2023-04-24T05:02:53;100028.63;;;9.80;91.32
45523;BME280;31254;51.680;5.394;2023-04-24T05:05:28;99999.09;;;9.59;91.76
45523;BME280;31254;51.680;5.394;2023-04-24T05:07:55;100030.69;;;9.78;91.60
45523;BME280;31254;51.680;5.394;2023-04-24T05:10:22;100003.22;;;9.63;91.22
45523;BME280;31254;51.680;5.394;2023-04-24T05:12:50;100030.69;;;9.78;91.80
45523;BME280;31254;51.680;5.394;2023-04-24T05:15:26;100023.72;;;9.75;92.03
45523;BME280;31254;51.680;5.394;2023-04-24T05:17:53;100027.13;;;9.77;91.93
45523;BME280;31254;51.680;5.394;2023-04-24T05:20:23;100026.03;;;9.70;92.19
45523;BME280;31254;51.680;5.394;2023-04-24T05:22:50;100013.28;;;9.62;92.90
45523;BME280;31254;51.680;5.394;2023-04-24T05:25:17;100036.44;;;9.75;92.51
45523;BME280;31254;51.680;5.394;2023-04-24T05:27:46;100003.69;;;9.50;93.01
45523;BME280;31254;51.680;5.394;2023-04-24T05:30:13;100043.56;;;9.59;92.72
45523;BME280;31254;51.680;5.394;2023-04-24T05:32:42;100063.00;;;9.73;92.92
45523;BME280;31254;51.680;5.394;2023-04-24T05:35:15;100049.16;;;9.58;92.70
45523;BME280;31254;51.680;5.394;2023-04-24T05:37:50;100068.53;;;9.55;92.71
45523;BME280;31254;51.680;5.394;2023-04-24T05:40:18;100078.53;;;9.46;92.31
45523;BME280;31254;51.680;5.394;2023-04-24T05:42:45;100081.97;;;9.48;92.31
45523;BME280;31254;51.680;5.394;2023-04-24T05:45:20;100072.72;;;9.41;92.34
45523;BME280;31254;51.680;5.394;2023-04-24T05:47:47;100075.44;;;9.41;92.34
45523;BME280;31254;51.680;5.394;2023-04-24T05:50:18;100099.66;;;9.52;92.53
45523;BME280;31254;51.680;5.394;2023-04-24T05:52:46;100089.09;;;9.49;92.18
45523;BME280;31254;51.680;5.394;2023-04-24T05:55:13;100104.78;;;9.55;92.11
45523;BME280;31254;51.680;5.394;2023-04-24T05:57:42;100109.91;;;9.58;91.94
45523;BME280;31254;51.680;5.394;2023-04-24T06:00:12;100116.91;;;9.61;92.27
45523;BME280;31254;51.680;5.394;2023-04-24T06:02:41;100079.72;;;9.43;92.34
45523;BME280;31254;51.680;5.394;2023-04-24T06:05:09;100106.56;;;9.64;92.15
45523;BME280;31254;51.680;5.394;2023-04-24T06:07:36;100106.19;;;9.59;91.94
45523;BME280;31254;51.680;5.394;2023-04-24T06:10:04;100123.25;;;9.69;91.48
45523;BME280;31254;51.680;5.394;2023-04-24T06:12:32;100126.81;;;9.70;91.76
45523;BME280;31254;51.680;5.394;2023-04-24T06:14:59;100094.06;;;9.54;91.51
45523;BME280;31254;51.680;5.394;2023-04-24T06:17:27;100137.56;;;9.72;92.05
45523;BME280;31254;51.680;5.394;2023-04-24T06:19:54;100115.69;;;9.55;91.76
45523;BME280;31254;51.680;5.394;2023-04-24T06:22:27;100150.31;;;9.71;92.50
45523;BME280;31254;51.680;5.394;2023-04-24T06:24:54;100163.78;;;9.73;91.82
45523;BME280;31254;51.680;5.394;2023-04-24T06:27:22;100166.66;;;9.71;92.28
45523;BME280;31254;51.680;5.394;2023-04-24T06:29:49;100159.13;;;9.65;91.97
45523;BME280;31254;51.680;5.394;2023-04-24T06:32:28;100156.22;;;9.58;92.53
45523;BME280;31254;51.680;5.394;2023-04-24T06:34:55;100187.13;;;9.75;92.11
45523;BME280;31254;51.680;5.394;2023-04-24T06:37:25;100166.63;;;9.63;92.25
45523;BME280;31254;51.680;5.394;2023-04-24T06:39:55;100163.22;;;9.61;92.46
45523;BME280;31254;51.680;5.394;2023-04-24T06:42:25;100137.19;;;9.40;92.19
45523;BME280;31254;51.680;5.394;2023-04-24T06:44:55;100194.28;;;9.76;92.30
45523;BME280;31254;51.680;5.394;2023-04-24T06:47:22;100208.53;;;9.70;91.98
45523;BME280;31254;51.680;5.394;2023-04-24T06:49:50;100211.56;;;9.67;92.33
45523;BME280;31254;51.680;5.394;2023-04-24T06:52:36;100227.84;;;9.59;92.07
45523;BME280;31254;51.680;5.394;2023-04-24T06:56:12;100247.31;;;9.64;92.21
45523;BME280;31254;51.680;5.394;2023-04-24T06:59:06;100251.03;;;9.63;91.58
45523;BME280;31254;51.680;5.394;2023-04-24T07:01:36;100224.09;;;9.33;92.01
45523;BME280;31254;51.680;5.394;2023-04-24T07:04:19;100227.50;;;9.36;91.95
45523;BME280;31254;51.680;5.394;2023-04-24T07:06:48;100258.06;;;9.47;91.63
45523;BME280;31254;51.680;5.394;2023-04-24T07:09:18;100240.66;;;9.22;91.83
45523;BME280;31254;51.680;5.394;2023-04-24T07:11:46;100181.66;;;8.87;92.16
45523;BME280;31254;51.680;5.394;2023-04-24T07:14:32;100294.09;;;9.41;92.25
45523;BME280;31254;51.680;5.394;2023-04-24T07:17:10;100251.09;;;9.09;92.06
45523;BME280;31254;51.680;5.394;2023-04-24T07:19:48;100184.75;;;8.56;92.14
45523;BME280;31254;51.680;5.394;2023-04-24T07:22:15;100273.63;;;9.01;92.25
45523;BME280;31254;51.680;5.394;2023-04-24T07:24:48;100318.03;;;9.20;92.31
45523;BME280;31254;51.680;5.394;2023-04-24T07:27:18;100297.50;;;9.07;92.29
45523;BME280;31254;51.680;5.394;2023-04-24T07:29:47;100339.19;;;9.26;92.36
45523;BME280;31254;51.680;5.394;2023-04-24T07:32:17;100188.84;;;8.32;92.05
45523;BME280;31254;51.680;5.394;2023-04-24T07:34:44;100351.94;;;9.25;92.63
45523;BME280;31254;51.680;5.394;2023-04-24T07:37:12;100370.09;;;9.35;92.58
45523;BME280;31254;51.680;5.394;2023-04-24T07:39:38;100345.84;;;9.13;92.36
45523;BME280;31254;51.680;5.394;2023-04-24T07:42:05;100378.06;;;9.36;92.66
45523;BME280;31254;51.680;5.394;2023-04-24T07:44:32;100386.97;;;9.38;92.48
45523;BME280;31254;51.680;5.394;2023-04-24T07:46:59;100386.72;;;9.31;92.30
45523;BME280;31254;51.680;5.394;2023-04-24T07:49:29;100412.47;;;9.37;92.42
45523;BME280;31254;51.680;5.394;2023-04-24T07:51:56;100405.94;;;9.30;92.26
45523;BME280;31254;51.680;5.394;2023-04-24T07:54:23;100418.91;;;9.36;92.57
45523;BME280;31254;51.680;5.394;2023-04-24T07:56:50;100420.47;;;9.39;92.42
45523;BME280;31254;51.680;5.394;2023-04-24T07:59:17;100410.94;;;9.35;92.20
45523;BME280;31254;51.680;5.394;2023-04-24T08:01:44;100399.38;;;9.23;91.87
45523;BME280;31254;51.680;5.394;2023-04-24T08:04:11;100437.50;;;9.41;92.27
45523;BME280;31254;51.680;5.394;2023-04-24T08:06:38;100434.78;;;9.41;92.02
45523;BME280;31254;51.680;5.394;2023-04-24T08:09:04;100441.81;;;9.43;91.83
45523;BME280;31254;51.680;5.394;2023-04-24T08:11:31;100442.50;;;9.45;92.09
45523;BME280;31254;51.680;5.394;2023-04-24T08:13:59;100466.72;;;9.48;92.02
45523;BME280;31254;51.680;5.394;2023-04-24T08:16:26;100469.59;;;9.47;91.52
45523;BME280;31254;51.680;5.394;2023-04-24T08:18:53;100477.75;;;9.47;91.92
45523;BME280;31254;51.680;5.394;2023-04-24T08:21:19;100464.19;;;9.37;91.63
45523;BME280;31254;51.680;5.394;2023-04-24T08:23:47;100477.47;;;9.50;91.25
45523;BME280;31254;51.680;5.394;2023-04-24T08:26:16;100482.16;;;9.58;91.32
45523;BME280;31254;51.680;5.394;2023-04-24T08:28:43;100488.03;;;9.53;91.19
45523;BME280;31254;51.680;5.394;2023-04-24T08:31:09;100460.06;;;9.33;91.08
45523;BME280;31254;51.680;5.394;2023-04-24T08:33:39;100495.22;;;9.54;90.94
45523;BME280;31254;51.680;5.394;2023-04-24T08:36:07;100504.25;;;9.55;91.00
45523;BME280;31254;51.680;5.394;2023-04-24T08:38:39;100492.06;;;9.49;90.62
45523;BME280;31254;51.680;5.394;2023-04-24T08:41:09;100516.13;;;9.54;90.83
45523;BME280;31254;51.680;5.394;2023-04-24T08:43:39;100525.72;;;9.58;90.74
45523;BME280;31254;51.680;5.394;2023-04-24T08:46:07;100532.56;;;9.62;90.04
45523;BME280;31254;51.680;5.394;2023-04-24T08:48:38;100534.69;;;9.68;90.34
45523;BME280;31254;51.680;5.394;2023-04-24T08:51:07;100534.78;;;9.76;89.85
45523;BME280;31254;51.680;5.394;2023-04-24T08:53:37;100541.06;;;9.86;89.13
45523;BME280;31254;51.680;5.394;2023-04-24T08:56:03;100546.16;;;9.89;89.52
45523;BME280;31254;51.680;5.394;2023-04-24T08:58:35;100546.94;;;9.82;89.51
45523;BME280;31254;51.680;5.394;2023-04-24T09:01:02;100464.09;;;9.29;89.44
45523;BME280;31254;51.680;5.394;2023-04-24T09:03:29;100498.78;;;9.55;88.91
45523;BME280;31254;51.680;5.394;2023-04-24T09:05:58;100564.78;;;9.94;88.63
45523;BME280;31254;51.680;5.394;2023-04-24T09:08:25;100556.91;;;9.91;88.65
45523;BME280;31254;51.680;5.394;2023-04-24T09:10:56;100552.34;;;9.92;88.36
45523;BME280;31254;51.680;5.394;2023-04-24T09:13:24;100582.59;;;10.16;87.50
45523;BME280;31254;51.680;5.394;2023-04-24T09:15:51;100576.06;;;10.27;86.99
45523;BME280;31254;51.680;5.394;2023-04-24T09:18:18;100585.38;;;10.34;86.87
45523;BME280;31254;51.680;5.394;2023-04-24T09:23:26;100579.59;;;10.55;85.34
45523;BME280;31254;51.680;5.394;2023-04-24T09:26:01;100591.13;;;10.67;84.76
45523;BME280;31254;51.680;5.394;2023-04-24T09:28:36;100594.41;;;10.71;84.32
45523;BME280;31254;51.680;5.394;2023-04-24T09:31:09;100602.34;;;10.82;83.73
45523;BME280;31254;51.680;5.394;2023-04-24T09:33:36;100607.31;;;10.87;82.97
45523;BME280;31254;51.680;5.394;2023-04-24T09:36:04;100616.06;;;10.90;82.76
45523;BME280;31254;51.680;5.394;2023-04-24T09:38:37;100605.31;;;10.89;82.76
45523;BME280;31254;51.680;5.394;2023-04-24T09:41:08;100575.47;;;10.51;83.25
45523;BME280;31254;51.680;5.394;2023-04-24T09:43:35;100616.56;;;10.68;83.06
45523;BME280;31254;51.680;5.394;2023-04-24T09:46:08;100636.56;;;10.58;83.58
45523;BME280;31254;51.680;5.394;2023-04-24T09:48:37;100634.91;;;10.48;83.57
45523;BME280;31254;51.680;5.394;2023-04-24T09:51:05;100635.56;;;10.41;83.15
45523;BME280;31254;51.680;5.394;2023-04-24T09:53:38;100638.03;;;10.25;83.03
45523;BME280;31254;51.680;5.394;2023-04-24T09:56:09;100656.97;;;10.27;83.55
45523;BME280;31254;51.680;5.394;2023-04-24T09:58:39;100658.16;;;10.24;83.44
45523;BME280;31254;51.680;5.394;2023-04-24T10:01:06;100663.91;;;10.21;83.21
45523;BME280;31254;51.680;5.394;2023-04-24T10:03:35;100666.03;;;10.27;82.57
45523;BME280;31254;51.680;5.394;2023-04-24T10:06:04;100630.72;;;10.07;82.58
45523;BME280;31254;51.680;5.394;2023-04-24T10:08:38;100671.47;;;10.37;81.95
45523;BME280;31254;51.680;5.394;2023-04-24T10:11:09;100666.84;;;10.37;81.97
45523;BME280;31254;51.680;5.394;2023-04-24T10:13:39;100679.97;;;10.52;81.17
45523;BME280;31254;51.680;5.394;2023-04-24T10:16:06;100672.78;;;10.51;80.91
45523;BME280;31254;51.680;5.394;2023-04-24T10:18:33;100686.97;;;10.54;80.68
45523;BME280;31254;51.680;5.394;2023-04-24T10:21:01;100688.16;;;10.52;80.38
45523;BME280;31254;51.680;5.394;2023-04-24T10:23:30;100677.00;;;10.45;80.05
45523;BME280;31254;51.680;5.394;2023-04-24T10:25:57;100692.25;;;10.38;80.80
45523;BME280;31254;51.680;5.394;2023-04-24T10:28:28;100684.41;;;10.25;81.19
45523;BME280;31254;51.680;5.394;2023-04-24T10:30:58;100701.97;;;10.13;81.36
45523;BME280;31254;51.680;5.394;2023-04-24T10:33:29;100706.88;;;9.99;81.53
45523;BME280;31254;51.680;5.394;2023-04-24T10:35:56;100709.22;;;9.94;81.78
45523;BME280;31254;51.680;5.394;2023-04-24T10:38:25;100708.78;;;9.99;81.38
45523;BME280;31254;51.680;5.394;2023-04-24T10:41:07;100700.22;;;10.21;81.03
45523;BME280;31254;51.680;5.394;2023-04-24T10:43:35;100718.41;;;10.58;79.15
45523;BME280;31254;51.680;5.394;2023-04-24T10:46:05;100714.78;;;10.86;78.44
45523;BME280;31254;51.680;5.394;2023-04-24T10:48:33;100712.34;;;11.01;77.67
45523;BME280;31254;51.680;5.394;2023-04-24T10:51:02;100702.28;;;11.19;77.41
45523;BME280;31254;51.680;5.394;2023-04-24T10:53:30;100712.16;;;11.38;77.13
45523;BME280;31254;51.680;5.394;2023-04-24T10:56:07;100714.81;;;11.48;76.58
45523;BME280;31254;51.680;5.394;2023-04-24T10:58:40;100727.41;;;11.41;76.71
45523;BME280;31254;51.680;5.394;2023-04-24T11:01:23;100712.56;;;11.25;76.78
45523;BME280;31254;51.680;5.394;2023-04-24T11:04:00;100671.41;;;11.01;76.22
45523;BME280;31254;51.680;5.394;2023-04-24T11:06:35;100706.50;;;11.31;75.64
45523;BME280;31254;51.680;5.394;2023-04-24T11:11:32;100694.09;;;11.63;74.96
45523;BME280;31254;51.680;5.394;2023-04-24T11:19:09;100733.47;;;12.05;74.14
45523;BME280;31254;51.680;5.394;2023-04-24T11:21:41;100747.75;;;11.91;74.37
45523;BME280;31254;51.680;5.394;2023-04-24T11:24:39;100745.38;;;11.69;75.06
45523;BME280;31254;51.680;5.394;2023-04-24T11:35:13;100746.19;;;10.90;75.88
45523;BME280;31254;51.680;5.394;2023-04-24T11:37:42;100766.72;;;10.94;76.22
45523;BME280;31254;51.680;5.394;2023-04-24T11:40:20;100771.44;;;10.74;76.05
45523;BME280;31254;51.680;5.394;2023-04-24T11:42:48;100712.69;;;10.24;76.00
45523;BME280;31254;51.680;5.394;2023-04-24T11:47:48;100763.00;;;10.30;76.21
45523;BME280;31254;51.680;5.394;2023-04-24T11:50:17;100765.88;;;10.28;76.25
45523;BME280;31254;51.680;5.394;2023-04-24T11:52:46;100803.16;;;10.47;76.83
45523;BME280;31254;51.680;5.394;2023-04-24T11:57:44;100799.66;;;10.65;75.95
45523;BME280;31254;51.680;5.394;2023-04-24T12:00:31;100793.00;;;10.95;75.15
45523;BME280;31254;51.680;5.394;2023-04-24T12:03:07;100803.22;;;11.29;74.49
45523;BME280;31254;51.680;5.394;2023-04-24T12:05:35;100805.34;;;11.53;73.80
45523;BME280;31254;51.680;5.394;2023-04-24T12:08:02;100805.03;;;11.56;73.41
45523;BME280;31254;51.680;5.394;2023-04-24T12:10:32;100794.31;;;11.63;73.47
45523;BME280;31254;51.680;5.394;2023-04-24T12:12:59;100801.03;;;11.68;74.17
45523;BME280;31254;51.680;5.394;2023-04-24T12:15:27;100798.63;;;11.65;73.99
45523;BME280;31254;51.680;5.394;2023-04-24T12:17:55;100790.41;;;11.65;73.59
45523;BME280;31254;51.680;5.394;2023-04-24T12:20:30;100794.00;;;11.66;73.82
45523;BME280;31254;51.680;5.394;2023-04-24T12:22:59;100800.13;;;11.60;73.81
45523;BME280;31254;51.680;5.394;2023-04-24T12:25:31;100806.75;;;11.39;74.84
45523;BME280;31254;51.680;5.394;2023-04-24T12:30:34;100827.78;;;11.11;75.10
45523;BME280;31254;51.680;5.394;2023-04-24T12:33:02;100834.50;;;10.98;75.90
45523;BME280;31254;51.680;5.394;2023-04-24T12:35:35;100841.72;;;10.90;76.50
45523;BME280;31254;51.680;5.394;2023-04-24T12:38:15;100840.06;;;10.79;76.44
45523;BME280;31254;51.680;5.394;2023-04-24T12:40:43;100845.81;;;10.76;76.87
45523;BME280;31254;51.680;5.394;2023-04-24T12:43:18;100840.16;;;10.59;76.81
45523;BME280;31254;51.680;5.394;2023-04-24T12:45:49;100868.03;;;10.53;77.27
45523;BME280;31254;51.680;5.394;2023-04-24T12:48:16;100866.91;;;10.46;77.42
45523;BME280;31254;51.680;5.394;2023-04-24T12:50:43;100866.34;;;10.42;77.48
45523;BME280;31254;51.680;5.394;2023-04-24T12:53:12;100874.34;;;10.54;77.18
45523;BME280;31254;51.680;5.394;2023-04-24T12:55:39;100862.16;;;10.86;76.77
45523;BME280;31254;51.680;5.394;2023-04-24T12:58:06;100864.16;;;11.11;76.13
45523;BME280;31254;51.680;5.394;2023-04-24T13:00:35;100856.31;;;11.44;75.32
45523;BME280;31254;51.680;5.394;2023-04-24T13:03:03;100841.81;;;11.62;74.94
45523;BME280;31254;51.680;5.394;2023-04-24T13:05:32;100856.97;;;11.92;75.01
45523;BME280;31254;51.680;5.394;2023-04-24T13:08:01;100858.47;;;12.13;74.77
45523;BME280;31254;51.680;5.394;2023-04-24T13:10:30;100865.59;;;12.32;74.28
45523;BME280;31254;51.680;5.394;2023-04-24T13:12:57;100853.91;;;12.48;73.85
45523;BME280;31254;51.680;5.394;2023-04-24T13:15:24;100868.06;;;12.43;73.64
45523;BME280;31254;51.680;5.394;2023-04-24T13:17:53;100852.47;;;12.70;73.55
45523;BME280;31254;51.680;5.394;2023-04-24T13:20:20;100861.47;;;12.88;72.76
45523;BME280;31254;51.680;5.394;2023-04-24T13:22:49;100863.13;;;12.81;72.74
45523;BME280;31254;51.680;5.394;2023-04-24T13:25:16;100732.09;;;12.01;73.14
45523;BME280;31254;51.680;5.394;2023-04-24T13:27:43;100854.25;;;12.87;72.97
45523;BME280;31254;51.680;5.394;2023-04-24T13:30:13;100869.84;;;12.87;72.72
45523;BME280;31254;51.680;5.394;2023-04-24T13:32:40;100868.59;;;12.81;72.56
45523;BME280;31254;51.680;5.394;2023-04-24T13:35:07;100875.16;;;12.54;72.76